createdAt,value
2019-05-28T00:02:06.187Z,35.50
2019-05-28T00:04:41.102Z,35.90
2019-05-28T00:07:15.943Z,36.13
2019-05-28T00:09:50.884Z,36.08
2019-05-28T00:12:25.690Z,35.30
2019-05-28T00:15:00.719Z,35.15
2019-05-28T00:17:37.275Z,34.92
2019-05-28T00:20:13.002Z,35.13
2019-05-28T00:22:47.904Z,35.75
2019-05-28T00:25:25.875Z,35.93
2019-05-28T00:27:59.298Z,36.15
2019-05-28T00:30:34.252Z,35.78
2019-05-28T00:33:09.143Z,35.68
2019-05-28T00:35:43.979Z,36.65
2019-05-28T00:38:18.760Z,35.95
2019-05-28T00:40:53.527Z,37.83
2019-05-28T00:43:28.468Z,36.80
2019-05-28T00:46:03.428Z,37.20
2019-05-28T00:48:38.357Z,36.75
2019-05-28T00:51:13.402Z,36.23
2019-05-28T00:53:48.395Z,35.25
2019-05-28T00:56:23.665Z,37.15
2019-05-28T00:58:58.878Z,36.83
2019-05-28T01:01:33.783Z,35.88
2019-05-28T01:04:08.623Z,36.15
2019-05-28T01:06:43.683Z,36.08
2019-05-28T01:09:18.551Z,35.83
2019-05-28T01:11:53.680Z,35.30
2019-05-28T01:14:29.019Z,35.83
2019-05-28T01:17:03.931Z,36.40
2019-05-28T01:19:38.773Z,35.98
2019-05-28T01:22:13.682Z,36.17
2019-05-28T01:24:49.267Z,36.68
2019-05-28T01:27:24.055Z,36.20
2019-05-28T01:29:58.835Z,36.75
2019-05-28T01:32:33.746Z,36.48
2019-05-28T01:35:08.679Z,35.23
2019-05-28T01:37:43.511Z,36.40
2019-05-28T01:40:18.581Z,35.73
2019-05-28T01:42:53.366Z,36.23
2019-05-28T01:45:28.299Z,38.28
2019-05-28T01:48:03.135Z,35.95
2019-05-28T01:50:37.987Z,35.58
2019-05-28T01:53:12.735Z,36.58
2019-05-28T01:55:47.635Z,35.50
2019-05-28T01:58:22.399Z,36.05
2019-05-28T02:01:11.466Z,35.73
2019-05-28T02:03:33.616Z,36.50
2019-05-28T02:06:08.394Z,35.78
2019-05-28T02:08:44.298Z,35.13
2019-05-28T02:11:19.067Z,35.33
2019-05-28T02:13:53.883Z,35.65
2019-05-28T02:16:28.779Z,34.92
2019-05-28T02:19:03.719Z,34.50
2019-05-28T02:21:38.535Z,35.17
2019-05-28T02:24:13.423Z,35.30
2019-05-28T02:26:48.211Z,34.58
2019-05-28T02:29:23.035Z,35.08
2019-05-28T02:31:57.971Z,35.45
2019-05-28T02:34:32.831Z,35.17
2019-05-28T02:37:07.784Z,34.90
2019-05-28T02:39:42.592Z,35.20
2019-05-28T02:42:17.505Z,35.60
2019-05-28T02:44:52.387Z,34.90
2019-05-28T02:47:27.254Z,34.88
2019-05-28T02:50:02.055Z,34.87
2019-05-28T02:52:37.291Z,35.33
2019-05-28T02:55:12.748Z,34.95
2019-05-28T02:57:49.945Z,35.00
2019-05-28T03:00:25.076Z,33.83
2019-05-28T03:03:19.864Z,35.30
2019-05-28T03:05:57.900Z,34.75
2019-05-28T03:08:33.347Z,34.03
2019-05-28T03:11:08.334Z,34.98
2019-05-28T03:13:43.198Z,34.83
2019-05-28T03:16:21.094Z,34.78
2019-05-28T03:18:57.382Z,34.43
2019-05-28T03:21:34.797Z,34.20
2019-05-28T03:24:11.445Z,34.53
2019-05-28T03:26:46.568Z,34.88
2019-05-28T03:29:21.592Z,35.20
2019-05-28T03:32:07.696Z,34.88
2019-05-28T03:34:41.942Z,34.23
2019-05-28T03:37:16.192Z,34.27
2019-05-28T03:39:52.844Z,34.90
2019-05-28T03:42:28.599Z,34.92
2019-05-28T03:45:03.622Z,34.27
2019-05-28T03:47:38.533Z,34.17
2019-05-28T03:50:13.712Z,34.43
2019-05-28T03:52:49.483Z,34.48
2019-05-28T03:55:24.548Z,34.73
2019-05-28T03:57:59.577Z,35.38
2019-05-28T04:00:34.610Z,36.40
2019-05-28T04:03:09.592Z,34.65
2019-05-28T04:05:44.573Z,34.80
2019-05-28T04:08:19.470Z,34.43
2019-05-28T04:10:54.411Z,34.85
2019-05-28T04:13:29.312Z,34.98
2019-05-28T04:16:04.306Z,34.35
2019-05-28T04:18:39.255Z,34.88
2019-05-28T04:21:14.140Z,35.00
2019-05-28T04:23:48.976Z,34.90
2019-05-28T04:26:23.859Z,34.78
2019-05-28T04:28:58.743Z,36.35
2019-05-28T04:31:33.739Z,34.83
2019-05-28T04:34:08.651Z,34.83
2019-05-28T04:36:43.472Z,34.70
2019-05-28T04:39:18.353Z,35.68
2019-05-28T04:41:53.259Z,36.70
2019-05-28T04:44:28.359Z,35.13
2019-05-28T04:47:03.261Z,35.50
2019-05-28T04:49:38.153Z,34.58
2019-05-28T04:52:13.199Z,34.55
2019-05-28T04:54:49.480Z,34.78
2019-05-28T04:57:24.381Z,34.70
2019-05-28T04:59:59.164Z,35.23
2019-05-28T05:02:33.981Z,34.78
2019-05-28T05:05:09.995Z,34.63
2019-05-28T05:07:44.968Z,35.58
2019-05-28T05:10:19.777Z,34.93
2019-05-28T05:12:54.791Z,34.80
2019-05-28T05:15:29.597Z,34.70
2019-05-28T05:18:04.563Z,34.83
2019-05-28T05:20:39.542Z,34.55
2019-05-28T05:23:14.417Z,34.85
2019-05-28T05:25:49.452Z,34.33
2019-05-28T05:28:25.436Z,34.30
2019-05-28T05:31:00.299Z,34.23
2019-05-28T05:33:35.300Z,34.10
2019-05-28T05:36:10.094Z,34.55
2019-05-28T05:38:44.982Z,34.30
2019-05-28T05:41:19.916Z,34.43
2019-05-28T05:43:54.714Z,35.15
2019-05-28T05:46:29.648Z,35.17
2019-05-28T05:49:04.597Z,35.05
2019-05-28T05:51:39.531Z,34.85
2019-05-28T05:54:15.390Z,33.67
2019-05-28T05:56:50.353Z,34.58
2019-05-28T05:59:25.223Z,34.50
2019-05-28T06:02:00.016Z,34.40
2019-05-28T06:04:34.989Z,34.55
2019-05-28T06:07:10.003Z,35.73
2019-05-28T06:09:44.887Z,35.10
2019-05-28T06:12:19.744Z,35.43
2019-05-28T06:14:54.703Z,34.67
2019-05-28T06:17:29.548Z,34.83
2019-05-28T06:20:05.685Z,35.05
2019-05-28T06:22:40.561Z,34.92
2019-05-28T06:25:15.576Z,34.67
2019-05-28T06:27:50.467Z,35.00
2019-05-28T06:30:25.428Z,34.95
2019-05-28T06:33:00.428Z,35.80
2019-05-28T06:35:35.360Z,35.13
2019-05-28T06:38:10.273Z,35.08
2019-05-28T06:40:45.142Z,35.75
2019-05-28T06:43:20.055Z,35.58
2019-05-28T06:45:54.852Z,34.27
2019-05-28T06:48:29.813Z,34.50
2019-05-28T06:51:04.756Z,34.45
2019-05-28T06:53:39.548Z,33.90
2019-05-28T06:56:14.499Z,33.78
2019-05-28T06:58:49.312Z,34.15
2019-05-28T07:01:24.224Z,34.48
2019-05-28T07:04:12.773Z,35.03
2019-05-28T07:06:41.740Z,35.33
2019-05-28T07:09:16.540Z,35.48
2019-05-28T07:11:51.424Z,35.88
2019-05-28T07:14:26.428Z,38.08
2019-05-28T07:17:01.421Z,34.40
2019-05-28T07:19:36.368Z,34.00
2019-05-28T07:22:11.174Z,34.38
2019-05-28T07:24:45.972Z,34.67
2019-05-28T07:27:20.835Z,34.85
2019-05-28T07:29:55.720Z,34.08
2019-05-28T07:32:30.666Z,33.88
2019-05-28T07:35:06.531Z,33.46
2019-05-28T07:37:41.466Z,33.63
2019-05-28T07:40:30.478Z,33.30
2019-05-28T07:42:52.979Z,32.73
2019-05-28T07:45:27.867Z,33.13
2019-05-28T07:48:02.654Z,32.90
2019-05-28T07:50:37.468Z,33.35
2019-05-28T07:53:12.321Z,33.05
2019-05-28T07:55:47.204Z,33.20
2019-05-28T07:58:22.067Z,33.55
2019-05-28T08:00:56.941Z,33.83
2019-05-28T08:03:31.875Z,33.70
2019-05-28T08:06:06.834Z,33.63
2019-05-28T08:08:41.841Z,33.53
2019-05-28T08:11:16.939Z,34.08
2019-05-28T08:13:52.676Z,33.73
2019-05-28T08:16:27.811Z,33.88
2019-05-28T08:19:02.675Z,34.20
2019-05-28T08:21:37.645Z,35.15
2019-05-28T08:24:12.654Z,34.70
2019-05-28T08:26:47.462Z,32.50
2019-05-28T08:29:22.402Z,32.60
2019-05-28T08:31:57.276Z,32.85
2019-05-28T08:34:32.185Z,32.90
2019-05-28T08:37:07.157Z,33.38
2019-05-28T08:39:42.057Z,32.55
2019-05-28T08:42:20.806Z,32.60
2019-05-28T08:44:53.439Z,32.83
2019-05-28T08:47:28.235Z,33.15
2019-05-28T08:50:03.293Z,32.78
2019-05-28T08:52:38.312Z,32.70
2019-05-28T08:55:13.589Z,32.90
2019-05-28T08:57:48.523Z,33.18
2019-05-28T09:00:37.216Z,32.97
2019-05-28T09:03:12.628Z,32.90
2019-05-28T09:05:47.580Z,32.98
2019-05-28T09:08:37.730Z,32.83
2019-05-28T09:10:59.095Z,33.05
2019-05-28T09:13:33.984Z,33.73
2019-05-28T09:16:09.016Z,33.28
2019-05-28T09:18:43.897Z,33.42
2019-05-28T09:21:18.709Z,33.18
2019-05-28T09:23:53.487Z,33.48
2019-05-28T09:26:28.488Z,33.50
2019-05-28T09:29:03.427Z,33.42
2019-05-28T09:31:38.323Z,33.80
2019-05-28T09:34:13.279Z,34.10
2019-05-28T09:36:48.096Z,33.95
2019-05-28T09:39:22.944Z,34.30
2019-05-28T09:41:57.823Z,34.35
2019-05-28T09:44:32.696Z,34.38
2019-05-28T09:47:07.687Z,34.45
2019-05-28T09:49:42.519Z,34.03
2019-05-28T09:52:17.405Z,34.98
2019-05-28T09:54:52.276Z,35.43
2019-05-28T09:57:27.088Z,35.60
2019-05-28T10:00:02.282Z,35.55
2019-05-28T10:02:37.673Z,34.10
2019-05-28T10:05:12.991Z,34.40
2019-05-28T10:07:48.212Z,33.55
2019-05-28T10:10:23.333Z,33.48
2019-05-28T10:12:58.225Z,33.63
2019-05-28T10:15:33.352Z,33.55
2019-05-28T10:18:08.239Z,32.80
2019-05-28T10:20:43.065Z,32.83
2019-05-28T10:23:19.139Z,33.02
2019-05-28T10:25:54.063Z,33.53
2019-05-28T10:28:29.095Z,33.75
2019-05-28T10:31:04.134Z,33.50
2019-05-28T10:33:39.091Z,34.18
2019-05-28T10:36:13.951Z,33.80
2019-05-28T10:38:48.852Z,32.98
2019-05-28T10:41:23.898Z,33.48
2019-05-28T10:43:58.784Z,33.45
2019-05-28T10:46:33.712Z,33.10
2019-05-28T10:49:08.552Z,33.50
2019-05-28T10:51:43.501Z,33.05
2019-05-28T10:54:18.319Z,33.58
2019-05-28T10:56:53.321Z,33.45
2019-05-28T10:59:28.173Z,33.18
2019-05-28T11:02:03.078Z,33.90
2019-05-28T11:04:38.043Z,33.65
2019-05-28T11:07:14.595Z,34.10
2019-05-28T11:09:49.553Z,35.23
2019-05-28T11:12:24.429Z,34.05
2019-05-28T11:15:00.443Z,33.90
2019-05-28T11:17:35.407Z,33.95
2019-05-28T11:20:11.836Z,34.05
2019-05-28T11:22:46.859Z,33.50
2019-05-28T11:25:22.015Z,33.67
2019-05-28T11:27:57.938Z,33.48
2019-05-28T11:30:32.975Z,33.63
2019-05-28T11:33:08.017Z,33.58
2019-05-28T11:35:42.975Z,34.03
2019-05-28T11:38:17.950Z,34.15
2019-05-28T11:40:52.752Z,33.85
2019-05-28T11:43:27.771Z,34.25
2019-05-28T11:46:02.741Z,33.83
2019-05-28T11:48:37.733Z,33.73
2019-05-28T11:51:12.629Z,34.08
2019-05-28T11:53:47.508Z,33.83
2019-05-28T11:56:22.468Z,33.80
2019-05-28T11:58:57.491Z,33.60
2019-05-28T12:01:35.062Z,33.70
2019-05-28T12:04:09.058Z,33.65
2019-05-28T12:06:43.990Z,33.83
2019-05-28T12:09:19.044Z,33.92
2019-05-28T12:11:53.940Z,33.65
2019-05-28T12:14:28.828Z,33.25
2019-05-28T12:17:03.807Z,34.40
2019-05-28T12:19:38.844Z,33.55
2019-05-28T12:22:13.727Z,34.10
2019-05-28T12:24:48.665Z,34.00
2019-05-28T12:27:23.595Z,33.92
2019-05-28T12:29:58.586Z,34.38
2019-05-28T12:32:33.434Z,34.10
2019-05-28T12:35:26.493Z,33.92
2019-05-28T12:37:49.911Z,34.15
2019-05-28T12:40:23.516Z,34.73
2019-05-28T12:42:58.411Z,33.92
2019-05-28T12:45:35.966Z,34.75
2019-05-28T12:48:12.954Z,34.27
2019-05-28T12:50:46.543Z,33.63
2019-05-28T12:53:21.413Z,34.48
2019-05-28T12:55:56.358Z,33.83
2019-05-28T12:58:42.816Z,34.05
2019-05-28T13:01:15.669Z,33.80
2019-05-28T13:03:57.968Z,34.35
2019-05-28T13:06:33.591Z,34.33
2019-05-28T13:09:09.303Z,34.18
2019-05-28T13:11:44.180Z,33.95
2019-05-28T13:14:19.050Z,34.30
2019-05-28T13:16:53.840Z,34.25
2019-05-28T13:19:28.724Z,33.85
2019-05-28T13:22:03.689Z,33.88
2019-05-28T13:24:40.925Z,34.18
2019-05-28T13:27:21.390Z,34.98
2019-05-28T13:29:56.256Z,34.20
2019-05-28T13:32:31.052Z,34.05
2019-05-28T13:35:06.797Z,34.38
2019-05-28T13:37:41.845Z,34.45
2019-05-28T13:40:17.350Z,34.93
2019-05-28T13:42:58.203Z,35.10
2019-05-28T13:45:33.160Z,34.63
2019-05-28T13:48:08.039Z,34.75
2019-05-28T13:50:42.916Z,34.53
2019-05-28T13:53:17.722Z,34.60
2019-05-28T13:55:52.701Z,34.50
2019-05-28T13:58:27.813Z,34.53
2019-05-28T14:01:03.602Z,34.83
2019-05-28T14:03:38.551Z,34.35
2019-05-28T14:06:13.800Z,34.25
2019-05-28T14:08:49.022Z,33.83
2019-05-28T14:11:24.060Z,34.38
2019-05-28T14:13:58.868Z,34.70
2019-05-28T14:16:33.689Z,34.65
2019-05-28T14:19:08.753Z,34.60
2019-05-28T14:21:43.653Z,34.60
2019-05-28T14:24:18.468Z,34.03
2019-05-28T14:26:53.934Z,34.25
2019-05-28T14:29:29.756Z,34.10
2019-05-28T14:32:05.047Z,34.73
2019-05-28T14:34:39.928Z,34.67
2019-05-28T14:37:21.511Z,34.65
2019-05-28T14:39:56.368Z,34.55
2019-05-28T14:42:31.301Z,34.67
2019-05-28T14:45:06.964Z,34.43
2019-05-28T14:47:41.913Z,34.50
2019-05-28T14:50:17.127Z,34.70
2019-05-28T14:52:52.076Z,34.35
2019-05-28T14:55:27.036Z,34.63
2019-05-28T14:58:05.354Z,34.85
2019-05-28T15:00:38.505Z,34.53
2019-05-28T15:03:13.466Z,34.48
2019-05-28T15:05:48.643Z,34.98
2019-05-28T15:08:23.604Z,34.75
2019-05-28T15:10:58.544Z,34.45
2019-05-28T15:13:33.421Z,33.70
2019-05-28T15:16:08.307Z,34.35
2019-05-28T15:18:43.201Z,33.90
2019-05-28T15:21:18.188Z,34.25
2019-05-28T15:23:53.171Z,34.75
2019-05-28T15:26:32.149Z,33.88
2019-05-28T15:29:30.532Z,34.80
2019-05-28T15:32:06.162Z,34.40
2019-05-28T15:34:41.040Z,34.10
2019-05-28T15:37:16.206Z,34.65
2019-05-28T15:39:51.025Z,34.23
2019-05-28T15:42:26.207Z,35.75
2019-05-28T15:45:09.997Z,34.58
2019-05-28T15:47:45.486Z,34.35
2019-05-28T15:50:20.634Z,34.23
2019-05-28T15:52:58.749Z,33.98
2019-05-28T15:55:32.135Z,34.33
2019-05-28T15:58:07.113Z,33.95
2019-05-28T16:00:42.055Z,34.10
2019-05-28T16:03:21.298Z,33.90
2019-05-28T16:05:56.914Z,34.90
2019-05-28T16:08:31.989Z,34.30
2019-05-28T16:11:06.864Z,33.85
2019-05-28T16:13:41.735Z,33.65
2019-05-28T16:16:16.552Z,33.83
2019-05-28T16:18:51.430Z,33.58
2019-05-28T16:21:26.392Z,34.20
2019-05-28T16:24:01.273Z,34.03
2019-05-28T16:26:36.189Z,34.05
2019-05-28T16:29:11.067Z,34.63
2019-05-28T16:31:45.949Z,34.60
2019-05-28T16:34:20.804Z,34.13
2019-05-28T16:36:55.732Z,34.27
2019-05-28T16:39:30.693Z,34.20
2019-05-28T16:42:06.995Z,34.13
2019-05-28T16:44:41.940Z,34.50
2019-05-28T16:47:22.197Z,34.43
2019-05-28T16:49:58.136Z,34.10
2019-05-28T16:52:33.083Z,33.85
2019-05-28T16:55:08.419Z,34.10
2019-05-28T16:57:43.337Z,34.08
2019-05-28T17:00:18.572Z,34.30
2019-05-28T17:02:53.563Z,35.75
2019-05-28T17:05:28.575Z,35.00
2019-05-28T17:08:03.699Z,35.50
2019-05-28T17:10:57.948Z,35.40
2019-05-28T17:13:34.483Z,35.63
2019-05-28T17:16:10.761Z,35.40
2019-05-28T17:18:46.795Z,36.33
2019-05-28T17:21:23.204Z,34.78
2019-05-28T17:23:59.336Z,34.73
2019-05-28T17:26:34.663Z,34.80
2019-05-28T17:29:14.534Z,34.90
2019-05-28T17:31:50.650Z,34.08
2019-05-28T17:34:25.578Z,34.43
2019-05-28T17:37:00.645Z,34.27
2019-05-28T17:39:35.550Z,33.67
2019-05-28T17:42:10.859Z,33.85
2019-05-28T17:44:47.325Z,33.95
2019-05-28T17:47:23.448Z,33.73
2019-05-28T17:50:00.616Z,33.60
2019-05-28T17:52:35.800Z,33.80
2019-05-28T17:55:11.124Z,33.63
2019-05-28T17:57:51.328Z,33.83
2019-05-28T18:00:28.805Z,33.40
2019-05-28T18:03:04.731Z,33.08
2019-05-28T18:05:39.580Z,33.80
2019-05-28T18:08:14.405Z,33.63
2019-05-28T18:11:03.393Z,33.63
2019-05-28T18:13:28.562Z,33.38
2019-05-28T18:16:03.684Z,33.42
2019-05-28T18:18:38.613Z,33.53
2019-05-28T18:21:13.693Z,33.42
2019-05-28T18:23:48.775Z,33.70
2019-05-28T18:26:23.564Z,33.15
2019-05-28T18:28:58.394Z,33.55
2019-05-28T18:31:33.304Z,33.13
2019-05-28T18:34:08.260Z,33.20
2019-05-28T18:36:43.277Z,33.18
2019-05-28T18:39:18.115Z,33.40
2019-05-28T18:41:53.153Z,33.33
2019-05-28T18:44:27.967Z,33.65
2019-05-28T18:47:02.892Z,34.00
2019-05-28T18:49:37.947Z,34.05
2019-05-28T18:52:13.001Z,33.70
2019-05-28T18:54:48.030Z,33.58
2019-05-28T18:57:22.882Z,33.63
2019-05-28T18:59:57.723Z,33.05
2019-05-28T19:02:32.684Z,33.23
2019-05-28T19:05:09.691Z,33.38
2019-05-28T19:07:44.661Z,33.38
2019-05-28T19:10:19.830Z,33.50
2019-05-28T19:12:58.019Z,33.98
2019-05-28T19:15:31.389Z,34.75
2019-05-28T19:18:06.445Z,33.45
2019-05-28T19:20:41.313Z,33.70
2019-05-28T19:23:17.345Z,33.55
2019-05-28T19:25:52.219Z,34.48
2019-05-28T19:28:27.256Z,34.03
2019-05-28T19:31:02.622Z,34.38
2019-05-28T19:33:38.596Z,33.65
2019-05-28T19:36:13.955Z,33.23
2019-05-28T19:38:49.425Z,33.55
2019-05-28T19:41:24.312Z,33.60
2019-05-28T19:43:59.130Z,33.40
2019-05-28T19:46:34.191Z,33.35
2019-05-28T19:49:09.102Z,33.28
2019-05-28T19:51:43.861Z,33.20
2019-05-28T19:54:18.695Z,33.20
2019-05-28T19:56:53.555Z,33.83
2019-05-28T19:59:28.586Z,33.55
2019-05-28T20:02:03.380Z,33.58
2019-05-28T20:04:38.238Z,33.15
2019-05-28T20:07:13.526Z,33.45
2019-05-28T20:09:48.439Z,33.48
2019-05-28T20:12:23.235Z,33.70
2019-05-28T20:14:58.156Z,32.83
2019-05-28T20:17:32.919Z,33.40
2019-05-28T20:20:08.560Z,33.73
2019-05-28T20:22:43.316Z,33.23
2019-05-28T20:25:18.464Z,33.35
2019-05-28T20:27:53.945Z,33.35
2019-05-28T20:30:29.013Z,32.90
2019-05-28T20:33:05.222Z,33.00
2019-05-28T20:35:40.326Z,33.00
2019-05-28T20:38:15.235Z,33.33
2019-05-28T20:40:51.207Z,33.95
2019-05-28T20:43:26.235Z,34.40
2019-05-28T20:46:02.704Z,33.92
2019-05-28T20:48:37.587Z,34.10
2019-05-28T20:51:19.992Z,34.90
2019-05-28T20:53:48.844Z,33.25
2019-05-28T20:56:23.762Z,33.33
2019-05-28T20:59:01.350Z,33.33
2019-05-28T21:01:36.129Z,33.50
2019-05-28T21:04:10.910Z,33.92
2019-05-28T21:06:45.760Z,33.70
2019-05-28T21:09:20.581Z,33.18
2019-05-28T21:11:56.434Z,33.50
2019-05-28T21:14:31.536Z,33.53
2019-05-28T21:17:06.404Z,33.35
2019-05-28T21:19:41.301Z,32.88
2019-05-28T21:22:26.017Z,33.45
2019-05-28T21:24:54.491Z,34.00
2019-05-28T21:27:29.419Z,32.98
2019-05-28T21:30:06.003Z,33.35
2019-05-28T21:32:40.753Z,33.25
2019-05-28T21:35:16.391Z,32.97
2019-05-28T21:37:51.212Z,32.98
2019-05-28T21:40:26.052Z,33.28
2019-05-28T21:43:08.979Z,33.42
2019-05-28T21:45:37.428Z,33.35
2019-05-28T21:48:12.188Z,33.15
2019-05-28T21:50:46.958Z,33.25
2019-05-28T21:53:21.721Z,33.18
2019-05-28T21:55:57.194Z,33.42
2019-05-28T21:58:32.179Z,33.92
2019-05-28T22:01:13.369Z,33.65
2019-05-28T22:03:48.212Z,32.98
2019-05-28T22:06:23.144Z,33.25
2019-05-28T22:08:57.988Z,33.00
2019-05-28T22:11:32.764Z,33.50
2019-05-28T22:14:08.608Z,33.13
2019-05-28T22:16:43.824Z,32.88
2019-05-28T22:19:18.735Z,32.85
2019-05-28T22:21:53.607Z,32.75
2019-05-28T22:24:28.520Z,32.75
2019-05-28T22:27:03.296Z,33.38
2019-05-28T22:29:38.280Z,32.70
2019-05-28T22:32:13.136Z,32.75
2019-05-28T22:34:48.030Z,33.18
2019-05-28T22:37:22.788Z,33.23
2019-05-28T22:39:57.551Z,33.25
2019-05-28T22:42:32.463Z,32.60
2019-05-28T22:45:07.413Z,33.25
2019-05-28T22:47:42.258Z,33.40
2019-05-28T22:50:22.906Z,33.07
2019-05-28T22:52:53.908Z,33.13
2019-05-28T22:55:28.784Z,32.45
2019-05-28T22:58:04.421Z,32.80
2019-05-28T23:00:39.474Z,32.90
2019-05-28T23:03:14.251Z,32.60
2019-05-28T23:05:49.080Z,33.25
2019-05-28T23:08:23.943Z,32.90
2019-05-28T23:10:59.452Z,32.58
2019-05-28T23:13:45.938Z,32.63
2019-05-28T23:16:10.769Z,32.85
2019-05-28T23:18:45.598Z,32.98
2019-05-28T23:21:20.446Z,32.48
2019-05-28T23:23:55.298Z,32.75
2019-05-28T23:26:30.058Z,32.28
2019-05-28T23:29:05.796Z,32.53
2019-05-28T23:31:40.597Z,32.85
2019-05-28T23:34:15.462Z,33.02
2019-05-28T23:36:50.232Z,33.75
2019-05-28T23:39:25.157Z,33.18
2019-05-28T23:41:59.936Z,32.50
2019-05-28T23:44:34.695Z,32.85
2019-05-28T23:47:10.125Z,33.33
2019-05-28T23:49:44.944Z,33.55
2019-05-28T23:52:19.720Z,33.05
2019-05-28T23:54:54.487Z,33.08
2019-05-28T23:57:29.256Z,32.58
